Time;durP1;ratioP1;P1;durP2;ratioP2;P2;SDS_P1;SDS_P2;PMS_P1;PMS_P2;Temp;Humidity;BMP_temperature;BMP_pressure;BME280_temperature;BME280_humidity;BME280_pressure;Samples;Min_cycle;Max_cycle;Signal;HPM_P1;HPM_P2
2023/07/06 00:01:03;;;;;;;11.60;4.82;;;14.10;99.90;;;;;;4879293;29;20197;-77
2023/07/06 00:03:33;;;;;;;9.75;5.40;;;14.10;99.90;;;;;;4862230;29;20658;-76
2023/07/06 00:05:59;;;;;;;14.07;4.85;;;14.10;99.90;;;;;;4872248;29;20212;-75
2023/07/06 00:08:27;;;;;;;11.38;5.05;;;14.10;99.90;;;;;;4879463;29;20200;-76
2023/07/06 00:10:53;;;;;;;11.95;5.10;;;14.00;99.90;;;;;;4866389;29;20229;-76
2023/07/06 00:13:22;;;;;;;10.00;5.50;;;14.00;99.90;;;;;;4874366;29;20212;-76
2023/07/06 00:15:48;;;;;;;11.65;5.75;;;14.10;99.90;;;;;;4862591;29;20194;-76
2023/07/06 00:18:17;;;;;;;11.85;5.35;;;14.00;99.90;;;;;;4867600;29;20225;-77
2023/07/06 00:20:43;;;;;;;12.40;5.38;;;14.00;99.90;;;;;;4876462;29;20652;-77
2023/07/06 00:23:10;;;;;;;12.13;5.78;;;14.00;99.90;;;;;;4879046;29;20194;-79
2023/07/06 00:25:36;;;;;;;8.57;5.15;;;14.00;99.90;;;;;;4878753;29;20723;-77
2023/07/06 00:28:03;;;;;;;6.93;5.05;;;14.00;99.90;;;;;;4875897;29;20186;-76
2023/07/06 00:33:11;;;;;;;9.50;5.70;;;14.00;99.90;;;;;;4877657;29;20232;-77
2023/07/06 00:35:40;;;;;;;10.57;5.53;;;13.90;99.90;;;;;;4870931;29;20186;-76
2023/07/06 00:38:13;;;;;;;16.45;5.60;;;14.00;99.90;;;;;;4866246;29;20197;-76
2023/07/06 00:40:48;;;;;;;10.85;5.70;;;13.90;99.90;;;;;;4870976;29;20188;-78
2023/07/06 00:43:24;;;;;;;8.90;4.88;;;13.90;99.90;;;;;;4864785;29;20577;-75
2023/07/06 00:46:03;;;;;;;12.40;6.25;;;13.90;99.90;;;;;;4871705;29;20181;-76
2023/07/06 00:48:44;;;;;;;12.23;6.18;;;13.90;99.90;;;;;;4878081;29;20229;-75
2023/07/06 00:51:27;;;;;;;11.20;5.40;;;13.90;99.90;;;;;;4870471;29;20582;-76
2023/07/06 00:54:01;;;;;;;12.55;6.10;;;13.90;99.90;;;;;;4872748;29;20193;-75
2023/07/06 00:56:30;;;;;;;13.38;6.70;;;13.80;99.90;;;;;;4876107;29;20217;-75
2023/07/06 00:59:03;;;;;;;12.70;6.05;;;13.80;99.90;;;;;;4874538;29;20197;-77
2023/07/06 01:01:32;;;;;;;12.75;5.88;;;13.80;99.90;;;;;;4861980;29;20194;-75
2023/07/06 01:03:59;;;;;;;9.05;5.97;;;13.80;99.90;;;;;;4861508;29;20651;-76
2023/07/06 01:06:49;;;;;;;13.02;6.45;;;13.80;99.90;;;;;;4877162;29;20216;-76
2023/07/06 01:09:17;;;;;;;12.18;6.45;;;13.70;99.90;;;;;;4893302;29;20184;-75
2023/07/06 01:11:44;;;;;;;12.48;6.40;;;13.70;99.90;;;;;;4869611;29;20311;-75
2023/07/06 01:14:14;;;;;;;12.88;6.40;;;13.70;99.90;;;;;;4875627;29;20185;-76
2023/07/06 01:17:21;;;;;;;14.43;6.25;;;13.70;99.90;;;;;;4874747;29;20277;-76
2023/07/06 01:19:50;;;;;;;16.23;6.57;;;13.60;99.90;;;;;;4863057;29;20264;-73
2023/07/06 01:22:31;;;;;;;11.48;6.82;;;13.70;99.90;;;;;;4891654;29;20647;-75
2023/07/06 01:25:16;;;;;;;15.93;7.05;;;13.70;99.90;;;;;;4877160;29;20189;-75
2023/07/06 01:28:10;;;;;;;16.08;7.38;;;13.60;99.90;;;;;;4872891;29;20675;-76
2023/07/06 01:31:01;;;;;;;15.52;7.28;;;13.60;99.90;;;;;;4867479;29;20188;-76
2023/07/06 01:33:42;;;;;;;12.98;7.47;;;13.60;99.90;;;;;;4860083;29;20178;-75
2023/07/06 01:36:24;;;;;;;12.70;7.80;;;13.60;99.90;;;;;;4864881;29;20267;-76
2023/07/06 01:39:18;;;;;;;13.68;7.85;;;13.60;99.90;;;;;;4878363;29;20194;-76
2023/07/06 01:41:45;;;;;;;16.65;7.65;;;13.60;99.90;;;;;;4855727;29;20277;-75
2023/07/06 01:44:13;;;;;;;16.45;7.60;;;13.60;99.90;;;;;;4877195;29;20182;-76
2023/07/06 01:46:53;;;;;;;14.60;8.27;;;13.60;99.90;;;;;;4865943;29;20213;-75
2023/07/06 01:49:20;;;;;;;15.68;8.10;;;13.60;99.90;;;;;;4868454;29;20192;-75
2023/07/06 01:51:59;;;;;;;15.25;8.05;;;13.60;99.90;;;;;;4872935;29;20232;-74
2023/07/06 01:54:39;;;;;;;16.95;7.97;;;13.60;99.90;;;;;;4858465;29;20186;-75
2023/07/06 01:57:13;;;;;;;13.02;8.93;;;13.60;99.90;;;;;;4876707;29;20312;-74
2023/07/06 01:59:46;;;;;;;14.38;8.25;;;13.60;99.90;;;;;;4857886;29;20258;-75
2023/07/06 02:02:13;;;;;;;12.95;8.77;;;13.60;99.90;;;;;;4876600;29;20221;-74
2023/07/06 02:04:43;;;;;;;17.73;8.27;;;13.60;99.90;;;;;;4876439;29;20590;-77
2023/07/06 02:07:12;;;;;;;17.05;8.50;;;13.60;99.90;;;;;;4866197;29;20191;-77
2023/07/06 02:09:45;;;;;;;15.40;8.60;;;13.60;99.90;;;;;;4878984;29;21512;-75
2023/07/06 02:12:13;;;;;;;14.15;8.65;;;13.60;99.90;;;;;;4869724;29;20217;-76
2023/07/06 02:14:40;;;;;;;16.67;9.80;;;13.60;99.90;;;;;;4877106;29;20194;-75
2023/07/06 02:17:07;;;;;;;13.70;8.55;;;13.60;99.90;;;;;;4878971;29;20205;-78
2023/07/06 02:19:35;;;;;;;18.85;9.13;;;13.60;99.90;;;;;;4881294;29;20186;-75
2023/07/06 02:22:04;;;;;;;15.50;9.13;;;13.60;99.90;;;;;;4863252;29;20198;-76
2023/07/06 02:24:31;;;;;;;16.52;9.68;;;13.60;99.90;;;;;;4861774;29;20182;-78
2023/07/06 02:26:57;;;;;;;14.68;8.27;;;13.60;99.90;;;;;;4869506;29;20302;-76
2023/07/06 02:29:23;;;;;;;15.48;9.00;;;13.70;99.90;;;;;;4869921;29;20600;-75
2023/07/06 02:31:49;;;;;;;15.25;8.75;;;13.70;99.90;;;;;;4876028;29;20226;-75
2023/07/06 02:34:21;;;;;;;14.60;9.07;;;13.70;99.90;;;;;;4876571;29;20746;-75
2023/07/06 02:36:47;;;;;;;12.50;8.93;;;13.70;99.90;;;;;;4872535;29;20648;-76
2023/07/06 02:39:14;;;;;;;16.25;9.80;;;13.70;99.90;;;;;;4876103;29;20189;-76
2023/07/06 02:41:40;;;;;;;16.25;9.60;;;13.70;99.90;;;;;;4871617;29;20201;-76
2023/07/06 02:44:05;;;;;;;17.58;10.07;;;13.70;99.90;;;;;;4875071;29;20204;-77
2023/07/06 02:46:31;;;;;;;16.25;9.80;;;13.70;99.90;;;;;;4872944;29;20204;-76
2023/07/06 02:48:57;;;;;;;14.00;8.82;;;13.70;99.90;;;;;;4864069;29;20253;-77
2023/07/06 02:51:23;;;;;;;18.40;9.70;;;13.70;99.90;;;;;;4887623;29;20235;-76
2023/07/06 02:53:48;;;;;;;17.98;10.50;;;13.70;99.90;;;;;;4866078;29;20651;-76
2023/07/06 02:56:14;;;;;;;17.65;10.00;;;13.80;99.90;;;;;;4876279;29;20202;-76
2023/07/06 02:58:40;;;;;;;14.50;9.68;;;13.80;99.90;;;;;;4876378;29;20647;-77
2023/07/06 03:01:06;;;;;;;14.48;9.70;;;13.70;99.90;;;;;;4873678;29;20282;-78
2023/07/06 03:03:32;;;;;;;20.20;10.40;;;13.70;99.90;;;;;;4876958;29;20221;-77
2023/07/06 03:06:01;;;;;;;16.08;9.60;;;13.70;99.90;;;;;;4863354;29;20192;-77
2023/07/06 03:08:27;;;;;;;15.68;10.30;;;13.70;99.90;;;;;;4880260;29;20200;-76
2023/07/06 03:10:53;;;;;;;15.27;9.90;;;13.70;99.90;;;;;;4868542;29;20202;-75
2023/07/06 03:13:19;;;;;;;16.20;10.57;;;13.70;99.90;;;;;;4876679;29;20213;-77
2023/07/06 03:15:51;;;;;;;15.73;10.68;;;13.70;99.90;;;;;;4878174;29;20189;-75
2023/07/06 03:18:18;;;;;;;15.40;9.95;;;13.70;99.90;;;;;;4874388;29;20326;-75
2023/07/06 03:20:48;;;;;;;12.88;9.68;;;13.70;99.90;;;;;;4869111;29;20201;-75
2023/07/06 03:23:14;;;;;;;17.90;9.85;;;13.70;99.90;;;;;;4894134;29;20643;-78
2023/07/06 03:25:39;;;;;;;19.83;9.88;;;13.70;99.90;;;;;;4873823;29;20201;-76
2023/07/06 03:28:05;;;;;;;15.25;10.05;;;13.70;99.90;;;;;;4878813;29;20216;-76
2023/07/06 03:30:31;;;;;;;17.50;10.38;;;13.70;99.90;;;;;;4862839;29;20213;-77
2023/07/06 03:33:00;;;;;;;18.98;9.70;;;13.60;99.90;;;;;;4879787;29;20264;-75
2023/07/06 03:35:27;;;;;;;14.02;9.80;;;13.60;99.90;;;;;;4876046;29;20185;-77
2023/07/06 03:37:58;;;;;;;18.83;10.32;;;13.70;99.90;;;;;;4872760;29;20193;-77
2023/07/06 03:40:26;;;;;;;14.57;9.65;;;13.60;99.90;;;;;;4875351;29;20193;-76
2023/07/06 03:42:56;;;;;;;16.20;9.45;;;13.70;99.90;;;;;;4868888;29;20190;-76
2023/07/06 03:45:22;;;;;;;15.82;9.77;;;13.60;99.90;;;;;;4868621;29;20190;-77
2023/07/06 03:47:50;;;;;;;15.93;9.52;;;13.60;99.90;;;;;;4879754;29;20233;-76
2023/07/06 03:50:17;;;;;;;15.02;9.30;;;13.60;99.90;;;;;;4879478;29;20201;-75
2023/07/06 03:52:44;;;;;;;15.73;9.18;;;13.60;99.90;;;;;;4879024;29;20228;-76
2023/07/06 03:55:22;;;;;;;16.52;9.30;;;13.60;99.90;;;;;;4877184;29;20213;-75
2023/07/06 03:57:49;;;;;;;15.98;9.30;;;13.60;99.90;;;;;;4872375;29;21722;-76
2023/07/06 04:00:19;;;;;;;16.13;9.15;;;13.70;99.90;;;;;;4869702;29;20309;-76
2023/07/06 04:02:54;;;;;;;16.08;9.23;;;13.60;99.90;;;;;;4879658;29;20216;-75
2023/07/06 04:05:31;;;;;;;16.73;8.77;;;13.70;99.90;;;;;;4879258;29;20211;-75
2023/07/06 04:08:03;;;;;;;17.92;9.27;;;13.70;99.90;;;;;;4872396;29;20246;-75
2023/07/06 04:10:30;;;;;;;13.68;9.20;;;13.70;99.90;;;;;;4861027;29;20186;-75
2023/07/06 04:12:56;;;;;;;14.73;9.13;;;13.70;99.90;;;;;;4865557;29;20636;-77
2023/07/06 04:15:23;;;;;;;12.15;8.45;;;13.70;99.90;;;;;;4846817;29;20199;-75
2023/07/06 04:17:50;;;;;;;16.02;9.45;;;13.70;99.90;;;;;;4874680;29;20202;-75
2023/07/06 04:20:22;;;;;;;17.52;9.00;;;13.70;99.90;;;;;;4878736;29;20228;-77
2023/07/06 04:22:49;;;;;;;14.23;8.88;;;13.70;99.90;;;;;;4878244;29;20673;-77
2023/07/06 04:25:19;;;;;;;19.02;8.88;;;13.80;99.90;;;;;;4876549;29;20268;-76
2023/07/06 04:27:46;;;;;;;14.23;9.05;;;13.80;99.90;;;;;;4861566;29;20186;-76
2023/07/06 04:30:13;;;;;;;14.38;8.57;;;13.80;99.90;;;;;;4876178;29;20189;-75
2023/07/06 04:32:39;;;;;;;14.75;8.90;;;13.80;99.90;;;;;;4875267;29;20268;-75
2023/07/06 04:35:06;;;;;;;13.27;8.90;;;13.80;99.90;;;;;;4867856;29;20647;-75
2023/07/06 04:37:32;;;;;;;15.50;8.45;;;13.80;99.90;;;;;;4876807;29;20217;-75
2023/07/06 04:39:59;;;;;;;19.10;9.10;;;13.90;99.90;;;;;;4878302;29;20227;-76
2023/07/06 04:42:27;;;;;;;17.33;8.50;;;13.90;99.90;;;;;;4865677;29;20208;-75
2023/07/06 04:44:54;;;;;;;19.00;8.90;;;13.90;99.90;;;;;;4878828;29;20206;-75
2023/07/06 04:47:23;;;;;;;21.15;8.30;;;13.90;99.90;;;;;;4876916;29;20245;-75
2023/07/06 04:49:50;;;;;;;16.55;8.50;;;13.90;99.90;;;;;;4862613;29;20253;-76
2023/07/06 04:52:16;;;;;;;12.55;8.38;;;14.00;99.90;;;;;;4869610;29;20296;-76
2023/07/06 04:54:42;;;;;;;17.23;8.85;;;14.00;99.90;;;;;;4891626;29;20196;-76
2023/07/06 04:57:13;;;;;;;14.82;8.80;;;14.00;99.90;;;;;;4870266;29;20190;-76
2023/07/06 04:59:40;;;;;;;19.80;9.27;;;14.00;99.90;;;;;;4878754;29;20203;-75
2023/07/06 05:02:07;;;;;;;19.00;9.00;;;14.10;99.90;;;;;;4865815;29;20257;-75
2023/07/06 05:04:33;;;;;;;18.75;8.80;;;14.10;99.90;;;;;;4878462;29;20189;-75
2023/07/06 05:06:59;;;;;;;20.90;9.18;;;14.10;99.90;;;;;;4876931;29;20258;-74
2023/07/06 05:09:25;;;;;;;19.95;9.75;;;14.10;99.90;;;;;;4877328;29;20185;-75
2023/07/06 05:11:52;;;;;;;17.00;9.35;;;14.20;99.90;;;;;;4872214;29;20286;-75
2023/07/06 05:14:20;;;;;;;20.52;10.32;;;14.20;99.90;;;;;;4875576;29;20189;-75
2023/07/06 05:16:45;;;;;;;23.80;9.57;;;14.20;99.90;;;;;;4874907;29;20189;-76
2023/07/06 05:19:11;;;;;;;16.73;9.30;;;14.20;99.90;;;;;;4863829;29;20208;-75
2023/07/06 05:21:38;;;;;;;19.95;10.63;;;14.30;99.90;;;;;;4890736;29;20705;-78
2023/07/06 05:24:04;;;;;;;16.17;9.77;;;14.30;99.90;;;;;;4874427;29;20185;-76
2023/07/06 05:26:29;;;;;;;17.70;10.18;;;14.30;99.90;;;;;;4876267;29;20692;-75
2023/07/06 05:28:55;;;;;;;20.42;9.88;;;14.40;99.90;;;;;;4872994;29;20177;-76
2023/07/06 05:31:21;;;;;;;23.20;10.02;;;14.40;99.90;;;;;;4868441;29;20230;-76
2023/07/06 05:33:47;;;;;;;18.65;9.10;;;14.50;99.90;;;;;;4870703;29;20198;-75
2023/07/06 05:36:12;;;;;;;24.83;10.57;;;14.50;99.90;;;;;;4866486;29;20185;-74
2023/07/06 05:38:38;;;;;;;20.52;10.00;;;14.60;99.90;;;;;;4856428;29;20573;-74
2023/07/06 05:41:04;;;;;;;21.15;10.82;;;14.60;99.90;;;;;;4867680;29;20654;-76
2023/07/06 05:43:30;;;;;;;24.75;10.63;;;14.60;99.90;;;;;;4864195;29;20189;-75
2023/07/06 05:45:56;;;;;;;19.83;9.93;;;14.70;99.90;;;;;;4871021;29;20276;-74
2023/07/06 05:48:22;;;;;;;22.02;10.77;;;14.70;99.90;;;;;;4868790;29;20244;-76
2023/07/06 05:50:47;;;;;;;23.85;11.35;;;14.80;99.90;;;;;;4872859;29;20242;-74
2023/07/06 05:53:13;;;;;;;23.38;10.75;;;14.80;99.90;;;;;;4867408;29;20196;-79
2023/07/06 05:55:43;;;;;;;22.52;11.20;;;14.80;99.90;;;;;;4885711;29;20224;-77
2023/07/06 05:58:11;;;;;;;27.80;11.82;;;14.90;99.90;;;;;;4871983;29;20193;-78
2023/07/06 06:00:40;;;;;;;29.23;12.02;;;14.90;99.90;;;;;;4871182;29;20210;-77
2023/07/06 06:03:06;;;;;;;22.02;11.10;;;14.90;99.90;;;;;;4881097;29;20280;-80
2023/07/06 06:05:34;;;;;;;25.00;11.25;;;15.00;99.90;;;;;;4866829;29;20285;-76
2023/07/06 06:08:02;;;;;;;21.52;11.02;;;15.00;99.90;;;;;;4868228;29;20186;-75
2023/07/06 06:10:28;;;;;;;24.65;11.80;;;15.10;99.90;;;;;;4871815;29;20265;-77
2023/07/06 06:12:54;;;;;;;25.60;11.73;;;15.10;99.90;;;;;;4867326;29;20309;-76
2023/07/06 06:15:21;;;;;;;27.77;10.85;;;15.20;99.90;;;;;;4876626;29;20236;-75
2023/07/06 06:17:48;;;;;;;20.60;10.88;;;15.20;99.90;;;;;;4888749;29;20780;-82
2023/07/06 06:20:14;;;;;;;18.13;11.43;;;15.20;99.90;;;;;;4874650;29;20722;-76
2023/07/06 06:22:40;;;;;;;22.45;11.93;;;15.30;99.90;;;;;;4876994;29;20256;-76
2023/07/06 06:25:06;;;;;;;22.48;11.18;;;15.40;99.90;;;;;;4873678;29;20277;-77
2023/07/06 06:27:32;;;;;;;21.73;11.75;;;15.40;99.90;;;;;;4873075;29;20726;-76
2023/07/06 06:29:58;;;;;;;32.92;12.50;;;15.50;99.90;;;;;;4876394;29;20213;-75
2023/07/06 06:32:25;;;;;;;28.00;12.40;;;15.50;99.90;;;;;;4874066;29;20293;-77
2023/07/06 06:34:52;;;;;;;24.52;11.88;;;15.60;99.90;;;;;;4880005;29;20235;-78
2023/07/06 06:37:18;;;;;;;25.42;11.60;;;15.70;99.90;;;;;;4881332;29;20194;-77
2023/07/06 06:39:44;;;;;;;28.08;11.52;;;15.70;99.90;;;;;;4875380;29;20189;-76
2023/07/06 06:42:13;;;;;;;25.35;11.77;;;15.80;99.90;;;;;;4880641;29;20257;-76
2023/07/06 06:44:41;;;;;;;24.20;11.20;;;15.90;99.90;;;;;;4895174;29;20235;-76
2023/07/06 06:47:07;;;;;;;34.28;12.68;;;15.90;99.90;;;;;;4881064;29;20189;-78
2023/07/06 06:49:34;;;;;;;23.90;11.18;;;16.10;99.90;;;;;;4881036;29;20237;-77
2023/07/06 06:52:03;;;;;;;27.52;11.07;;;16.10;99.90;;;;;;4863563;29;20220;-77
2023/07/06 06:54:30;;;;;;;28.95;10.50;;;16.20;99.90;;;;;;4875619;29;20285;-77
2023/07/06 06:56:56;;;;;;;26.63;11.20;;;16.20;99.90;;;;;;4861047;29;20178;-76
2023/07/06 06:59:22;;;;;;;26.77;10.98;;;16.30;99.90;;;;;;4873169;29;20189;-79
2023/07/06 07:01:50;;;;;;;21.05;10.82;;;16.40;99.90;;;;;;4880342;29;20201;-81
2023/07/06 07:04:17;;;;;;;27.38;11.73;;;16.50;99.90;;;;;;4864103;29;20188;-76
2023/07/06 07:06:42;;;;;;;22.98;10.70;;;16.60;99.90;;;;;;4879114;29;20217;-76
2023/07/06 07:09:10;;;;;;;24.92;10.80;;;16.60;99.90;;;;;;4874373;29;20220;-77
2023/07/06 07:11:36;;;;;;;24.15;10.63;;;16.70;99.90;;;;;;4872646;29;20230;-76
2023/07/06 07:14:03;;;;;;;29.13;9.80;;;16.80;99.90;;;;;;4871928;29;20193;-76
2023/07/06 07:16:29;;;;;;;21.92;10.13;;;16.80;99.90;;;;;;4872455;29;20575;-76
2023/07/06 07:18:55;;;;;;;19.63;9.55;;;16.90;99.90;;;;;;4875998;29;20189;-77
2023/07/06 07:21:21;;;;;;;24.10;9.82;;;17.00;99.90;;;;;;4876074;29;20197;-79
2023/07/06 07:23:48;;;;;;;20.15;9.23;;;17.10;99.90;;;;;;4873640;29;20614;-77
2023/07/06 07:26:20;;;;;;;24.50;9.10;;;17.10;99.90;;;;;;4877704;29;20206;-76
2023/07/06 07:28:48;;;;;;;19.30;8.88;;;17.20;99.90;;;;;;4888132;29;20231;-76
2023/07/06 07:31:14;;;;;;;22.63;9.02;;;17.30;99.90;;;;;;4873360;29;20221;-76
2023/07/06 07:33:44;;;;;;;21.35;8.27;;;17.40;99.90;;;;;;4871388;29;20201;-77
2023/07/06 07:36:12;;;;;;;21.95;7.47;;;17.40;99.90;;;;;;4856305;29;20303;-79
2023/07/06 07:38:39;;;;;;;15.32;7.50;;;17.50;99.90;;;;;;4874661;29;20228;-77
2023/07/06 07:41:07;;;;;;;21.13;7.78;;;17.60;99.90;;;;;;4874040;29;20189;-79
2023/07/06 07:43:36;;;;;;;17.83;7.40;;;17.70;99.90;;;;;;4873703;29;20201;-77
2023/07/06 07:46:06;;;;;;;13.98;6.32;;;17.70;99.90;;;;;;4889546;29;20193;-77
2023/07/06 07:48:37;;;;;;;11.88;4.97;;;17.80;99.90;;;;;;4873362;29;20228;-76
2023/07/06 07:51:07;;;;;;;12.05;5.07;;;17.90;99.90;;;;;;4875622;29;20189;-77
2023/07/06 07:53:37;;;;;;;12.00;4.40;;;18.00;99.90;;;;;;4872362;29;20194;-76
2023/07/06 07:56:06;;;;;;;14.45;4.57;;;18.00;99.90;;;;;;4875010;29;20208;-76
2023/07/06 07:58:33;;;;;;;9.52;4.45;;;18.20;99.90;;;;;;4874880;29;20259;-77
2023/07/06 08:01:01;;;;;;;9.77;4.50;;;18.30;99.90;;;;;;4874153;29;20189;-76
2023/07/06 08:03:28;;;;;;;12.93;4.18;;;18.30;99.90;;;;;;4886301;29;20635;-77
2023/07/06 08:05:59;;;;;;;9.60;4.72;;;18.40;99.90;;;;;;4873047;29;20185;-76
2023/07/06 08:08:25;;;;;;;10.40;4.45;;;18.50;99.90;;;;;;4869995;29;20201;-79
2023/07/06 08:10:55;;;;;;;5.88;3.00;;;18.60;99.90;;;;;;4876413;29;20189;-76
2023/07/06 08:13:22;;;;;;;6.55;2.85;;;18.70;99.90;;;;;;4867211;29;20201;-75
2023/07/06 08:15:49;;;;;;;7.78;2.97;;;18.80;99.90;;;;;;4866725;29;20578;-76
2023/07/06 08:18:15;;;;;;;7.13;3.03;;;18.90;99.90;;;;;;4875191;29;20276;-76
2023/07/06 08:20:46;;;;;;;9.00;3.40;;;19.00;99.90;;;;;;4879137;29;20173;-78
2023/07/06 08:23:13;;;;;;;7.13;2.70;;;19.10;99.90;;;;;;4870757;29;20190;-76
2023/07/06 08:25:40;;;;;;;7.70;2.60;;;19.30;99.90;;;;;;4879018;29;20276;-78
2023/07/06 08:28:12;;;;;;;8.32;2.72;;;19.40;99.90;;;;;;5092106;27;1301017;-76
2023/07/06 08:30:40;;;;;;;7.97;2.60;;;19.40;99.90;;;;;;5128904;28;20184;-75
2023/07/06 08:33:09;;;;;;;9.93;2.72;;;19.50;99.90;;;;;;5107575;28;20193;-75
2023/07/06 08:35:40;;;;;;;6.53;2.28;;;19.60;99.90;;;;;;5127552;27;20193;-76
2023/07/06 08:38:05;;;;;;;12.30;2.50;;;19.60;99.90;;;;;;5124147;28;20275;-75
2023/07/06 08:40:33;;;;;;;6.28;2.33;;;19.60;99.90;;;;;;5129293;28;20252;-76
2023/07/06 08:43:00;;;;;;;5.35;2.30;;;19.70;99.90;;;;;;5118968;28;20168;-76
2023/07/06 08:45:42;;;;;;;8.07;2.60;;;19.80;99.90;;;;;;5111832;28;20180;-75
2023/07/06 08:48:16;;;;;;;7.82;2.22;;;19.80;99.90;;;;;;5128920;27;20774;-76
2023/07/06 08:50:59;;;;;;;10.20;2.63;;;19.80;99.90;;;;;;5129624;27;20532;-77
2023/07/06 08:53:32;;;;;;;8.73;2.45;;;19.80;99.90;;;;;;5121594;28;20181;-76
2023/07/06 08:56:01;;;;;;;4.47;2.53;;;19.70;99.90;;;;;;5129217;28;20172;-75
2023/07/06 08:58:30;;;;;;;8.98;2.60;;;19.70;99.90;;;;;;5125751;28;20207;-75
2023/07/06 09:01:05;;;;;;;5.57;2.50;;;19.60;99.90;;;;;;5115198;28;20206;-78
2023/07/06 09:03:40;;;;;;;9.75;2.72;;;19.60;99.90;;;;;;5112867;28;20230;-78
2023/07/06 09:06:11;;;;;;;9.63;3.08;;;19.60;99.90;;;;;;5121333;27;20684;-76
2023/07/06 09:08:37;;;;;;;7.28;2.50;;;19.60;99.90;;;;;;5124027;28;20198;-76
2023/07/06 09:11:05;;;;;;;6.25;2.47;;;19.60;99.90;;;;;;5112539;28;20192;-77
2023/07/06 09:13:43;;;;;;;6.55;2.38;;;19.60;99.90;;;;;;5127081;28;20276;-76
2023/07/06 09:16:10;;;;;;;9.10;2.50;;;19.70;99.90;;;;;;5107647;28;20187;-75
2023/07/06 09:18:36;;;;;;;9.30;2.53;;;19.70;99.90;;;;;;5124068;28;20199;-76
2023/07/06 09:21:04;;;;;;;7.38;2.30;;;19.70;99.90;;;;;;5122301;28;20173;-75
2023/07/06 09:23:31;;;;;;;7.63;2.75;;;19.70;99.90;;;;;;5124770;28;20216;-77
2023/07/06 09:25:57;;;;;;;6.43;2.63;;;19.70;99.90;;;;;;5120694;27;20181;-76
2023/07/06 09:28:29;;;;;;;6.72;2.30;;;19.70;99.90;;;;;;5111302;28;20243;-78
2023/07/06 09:31:20;;;;;;;5.20;2.28;;;19.70;99.90;;;;;;5119879;28;20254;-76
2023/07/06 09:33:49;;;;;;;5.95;2.00;;;19.80;99.90;;;;;;5128669;27;20259;-75
2023/07/06 09:36:19;;;;;;;4.28;2.45;;;19.90;99.90;;;;;;5126054;28;20293;-76
2023/07/06 09:38:45;;;;;;;7.15;2.40;;;20.00;99.90;;;;;;5101359;27;20192;-76
2023/07/06 09:41:23;;;;;;;7.68;2.13;;;20.10;99.90;;;;;;5098961;28;20216;-76
2023/07/06 09:43:59;;;;;;;6.15;2.17;;;20.30;99.90;;;;;;5108502;28;20176;-77
2023/07/06 09:46:32;;;;;;;5.78;1.95;;;20.30;99.90;;;;;;5111922;28;20687;-80
2023/07/06 09:48:59;;;;;;;4.32;1.95;;;20.40;99.90;;;;;;5112214;28;20260;-77
2023/07/06 09:51:32;;;;;;;4.90;1.73;;;20.50;99.90;;;;;;5110062;28;20181;-78
2023/07/06 09:54:11;;;;;;;7.03;1.90;;;20.50;99.90;;;;;;5109082;28;20208;-77
2023/07/06 09:56:37;;;;;;;4.50;2.10;;;20.60;99.90;;;;;;5112876;28;20230;-79
2023/07/06 09:59:03;;;;;;;4.63;2.20;;;20.70;99.90;;;;;;5114706;28;20188;-76
2023/07/06 10:01:34;;;;;;;8.25;1.83;;;20.70;99.90;;;;;;5115247;28;20264;-76
2023/07/06 10:04:44;;;;;;;4.28;1.75;;;20.70;99.90;;;;;;5110677;28;20844;-81
2023/07/06 10:07:36;;;;;;;7.32;1.95;;;20.70;99.90;;;;;;5109433;28;20290;-77
2023/07/06 10:10:30;;;;;;;7.63;2.20;;;20.70;99.90;;;;;;5114655;28;20185;-76
2023/07/06 10:13:13;;;;;;;4.13;1.83;;;20.80;99.90;;;;;;5114763;28;20213;-81
2023/07/06 10:15:50;;;;;;;5.53;1.70;;;20.80;99.90;;;;;;5110466;28;20263;-77
2023/07/06 10:18:25;;;;;;;4.90;1.80;;;20.80;99.90;;;;;;5112266;28;20177;-77
2023/07/06 10:21:01;;;;;;;4.68;1.92;;;20.90;99.90;;;;;;5114671;28;20180;-76
2023/07/06 10:23:51;;;;;;;6.57;1.90;;;20.80;99.90;;;;;;5114063;28;20184;-76
2023/07/06 10:26:33;;;;;;;10.38;2.00;;;20.80;99.90;;;;;;5115082;28;20220;-76
2023/07/06 10:29:31;;;;;;;5.30;1.85;;;20.90;99.90;;;;;;5109935;28;20644;-76
2023/07/06 10:32:30;;;;;;;5.18;2.13;;;21.00;99.90;;;;;;5093883;28;20194;-75
2023/07/06 10:35:11;;;;;;;6.00;2.17;;;21.00;99.90;;;;;;5096322;28;20185;-76
2023/07/06 10:37:39;;;;;;;5.75;2.33;;;21.00;99.90;;;;;;5110704;28;20189;-76
2023/07/06 10:40:26;;;;;;;4.95;2.10;;;21.00;99.90;;;;;;5104311;28;20177;-75
2023/07/06 10:43:12;;;;;;;5.15;2.33;;;21.00;99.90;;;;;;5114156;28;20185;-76
2023/07/06 10:45:56;;;;;;;7.45;2.20;;;20.90;99.90;;;;;;5114189;28;20625;-75
2023/07/06 10:48:25;;;;;;;6.30;2.03;;;21.00;99.90;;;;;;5092916;28;20599;-79
2023/07/06 10:50:56;;;;;;;6.18;5.40;;;21.10;99.90;;;;;;5103610;28;20185;-78
2023/07/06 10:53:43;;;;;;;6.40;1.83;;;21.20;99.90;;;;;;5113278;28;20177;-76
2023/07/06 10:56:15;;;;;;;12.80;2.83;;;21.30;99.90;;;;;;5113634;28;20192;-76
2023/07/06 10:58:57;;;;;;;3.95;2.10;;;21.50;99.90;;;;;;5112759;28;20177;-79
2023/07/06 11:01:40;;;;;;;10.93;2.05;;;21.60;99.90;;;;;;5100567;28;20185;-76
2023/07/06 11:04:51;;;;;;;4.13;2.00;;;21.70;99.90;;;;;;5092976;28;20188;-77
2023/07/06 11:07:47;;;;;;;3.92;1.70;;;21.80;99.90;;;;;;5089915;28;20704;-76
2023/07/06 11:10:19;;;;;;;2.30;1.60;;;21.90;99.50;;;;;;5100950;28;20209;-76
2023/07/06 11:13:06;;;;;;;4.03;1.80;;;22.00;98.90;;;;;;5098332;28;20178;-75
2023/07/06 11:15:56;;;;;;;7.40;1.63;;;22.00;98.20;;;;;;5091524;28;20182;-77
2023/07/06 11:18:21;;;;;;;3.92;1.90;;;22.10;97.50;;;;;;5092919;28;20511;-76
2023/07/06 11:21:24;;;;;;;2.88;1.58;;;22.20;97.30;;;;;;5093550;28;20184;-76
2023/07/06 11:23:56;;;;;;;5.65;1.65;;;22.20;97.00;;;;;;5090654;28;20170;-77
2023/07/06 11:26:47;;;;;;;4.45;1.52;;;22.20;96.70;;;;;;5092347;28;20237;-76
2023/07/06 11:29:13;;;;;;;3.60;1.77;;;22.20;96.40;;;;;;5093201;28;20186;-76
2023/07/06 11:31:47;;;;;;;5.03;1.80;;;22.20;95.80;;;;;;5108030;28;20231;-75
2023/07/06 11:34:47;;;;;;;4.45;1.80;;;22.20;95.50;;;;;;5103769;28;20172;-76
2023/07/06 11:37:30;;;;;;;3.50;1.50;;;22.30;95.30;;;;;;5104680;28;20181;-78
2023/07/06 11:40:06;;;;;;;4.93;1.65;;;22.30;95.00;;;;;;5094944;28;20683;-76
2023/07/06 11:42:50;;;;;;;4.22;1.98;;;22.30;94.80;;;;;;5096679;28;20177;-76
2023/07/06 11:45:30;;;;;;;5.70;1.83;;;22.30;94.60;;;;;;5098107;28;20181;-78
2023/07/06 11:48:21;;;;;;;3.67;1.58;;;22.20;94.70;;;;;;5103173;28;20300;-76
2023/07/06 11:50:48;;;;;;;5.60;1.88;;;22.10;94.90;;;;;;5106798;28;20637;-75
2023/07/06 11:53:29;;;;;;;4.22;2.10;;;22.00;95.20;;;;;;5087437;28;21424;-75
2023/07/06 11:56:18;;;;;;;3.53;2.00;;;22.00;95.50;;;;;;5112642;28;20185;-77
2023/07/06 11:58:56;;;;;;;5.45;2.40;;;21.80;95.80;;;;;;5111708;28;20649;-77
2023/07/06 12:01:45;;;;;;;8.60;2.15;;;21.70;96.20;;;;;;5112316;28;20226;-77
2023/07/06 12:04:20;;;;;;;6.75;2.20;;;21.70;96.50;;;;;;5103639;28;20309;-77
2023/07/06 12:06:50;;;;;;;10.55;2.20;;;21.60;96.80;;;;;;5104982;28;20347;-75
2023/07/06 12:09:22;;;;;;;7.88;2.20;;;21.60;97.00;;;;;;5105383;28;20180;-76
2023/07/06 12:11:59;;;;;;;6.93;2.58;;;21.50;97.10;;;;;;5107288;28;20213;-76
2023/07/06 12:14:27;;;;;;;6.95;2.35;;;21.60;97.30;;;;;;5081987;28;20177;-75
2023/07/06 12:16:54;;;;;;;5.15;2.20;;;21.60;97.40;;;;;;5099469;28;20213;-76
2023/07/06 12:19:21;;;;;;;6.55;2.28;;;21.70;97.40;;;;;;5105345;28;20181;-76
2023/07/06 12:21:57;;;;;;;5.10;2.30;;;21.70;97.30;;;;;;5101486;28;20185;-80
2023/07/06 12:24:25;;;;;;;4.50;2.13;;;21.80;97.10;;;;;;5106127;28;20176;-76
2023/07/06 12:26:53;;;;;;;9.25;2.20;;;21.80;97.00;;;;;;5096746;28;20244;-76
2023/07/06 12:29:26;;;;;;;10.10;2.00;;;21.80;96.90;;;;;;5090910;28;20281;-76
2023/07/06 12:31:57;;;;;;;5.00;2.28;;;21.80;96.90;;;;;;5092432;28;20203;-77
2023/07/06 12:34:33;;;;;;;7.07;2.03;;;21.80;96.80;;;;;;5102914;28;20192;-77
2023/07/06 12:37:02;;;;;;;4.70;2.20;;;21.80;96.90;;;;;;5112254;28;20188;-75
2023/07/06 12:39:36;;;;;;;5.15;2.05;;;21.80;97.00;;;;;;5111859;28;20212;-78
2023/07/06 12:42:01;;;;;;;4.32;2.03;;;21.80;97.00;;;;;;5111668;28;20184;-78
2023/07/06 12:44:29;;;;;;;5.68;2.38;;;21.70;96.90;;;;;;5108719;28;20182;-77
2023/07/06 12:47:01;;;;;;;5.15;2.20;;;21.70;97.10;;;;;;5110462;28;20213;-77
2023/07/06 12:49:29;;;;;;;5.57;1.83;;;21.70;97.20;;;;;;5111860;28;20222;-77
2023/07/06 12:51:58;;;;;;;6.10;2.38;;;21.80;97.20;;;;;;5110219;28;20177;-77
2023/07/06 12:54:29;;;;;;;7.65;2.20;;;21.80;97.00;;;;;;5110482;28;20247;-77
2023/07/06 12:57:03;;;;;;;7.65;2.08;;;22.00;96.80;;;;;;5112722;28;20215;-77
2023/07/06 12:59:34;;;;;;;4.35;2.15;;;22.00;96.90;;;;;;5112096;28;20270;-76
2023/07/06 13:02:19;;;;;;;6.88;2.00;;;22.10;96.80;;;;;;5112064;28;20178;-76